SCC: Phoenix GS practice two times

Pos Num Class Team Time Gap To 1st Speed --- --- ----- ------------------------------ ---------- ------- ------- ------- 1. 13 GS Unitech Racing 1:07.452 80.591 2. 17...

Pos Num Class Team                                 Time     Gap  To 1st   Speed
--- --- ----- ------------------------------ ---------- ------- ------- -------
 1.  13 GS    Unitech Racing                   1:07.452                  80.591
 2.  17 GS    Doncaster Racing                 1:07.895   0.443   0.443  80.065
 3.  60 GS    Finlay Motorsports               1:08.144   0.249   0.692  79.772
 4.  81 GS    Synergy Racing                   1:08.204   0.060   0.752  79.702
 5.  38 GS    BGB Motorsports                  1:08.438   0.234   0.986  79.430
 6.  33 GS    Unitech Racing                   1:08.469   0.031   1.017  79.394
 7.  83 GS    BGB Motorsports                  1:08.798   0.329   1.346  79.014
 8.  09 GS    Automatic Racing                 1:08.820   0.022   1.368  78.989
 9.  96 GS    Turner Motorsport                1:08.870   0.050   1.418  78.931
10.   5 GS    Blackforest Motorsports          1:09.014   0.144   1.562  78.767
11.  05 GS    Multimatic Motorsports           1:09.098   0.084   1.646  78.671
12.   7 GS    Power Racing Team                1:09.103   0.005   1.651  78.665
13.  40 GS    Team Sahlen                      1:09.146   0.043   1.694  78.616
14.  11 GS    Powell Motorsport                1:09.194   0.048   1.742  78.562
15.  59 GS    Rehagen Racing                   1:10.245   1.051   2.793  77.386
16.  42 GS    Team Sahlen                      1:10.334   0.089   2.882  77.288
17.  91 GS    Fiorano Racing                   1:10.336   0.002   2.884  77.286
18.  47 GS    TF Racing                        1:10.708   0.372   3.256  76.880
19.  58 GS    Rehagen Racing                   1:10.758   0.050   3.306  76.825
20.  80 GS    Synergy Racing                   1:11.364   0.606   3.912  76.173
21.  63 GS    Team RPM                         1:12.094   0.730   4.642  75.402
22.  24 GS    Power Racing Team                1:13.126   1.032   5.674  74.337
23.  69 GS    Krohn Racing/TRG                  No Time
24.  55 GS    Multimatic Motorsports            No Time
25.  43 GS    Team Sahlen                       No Time
26.   4 GS    Blackforest Motorsports           No Time

Be part of something big

Write a comment
Show comments
About this article
Series Grand-Am
Teams Krohn Racing , Rehagen Racing , Turner Motorsport , Team Sahlen , Multimatic Motorsports , Automatic Racing